Ust-Kamennogorsk Airport
UASK : now visible

Airfield :











YOU CAN JOIN US ON...

 
LOGIN :

Register | Disclaimer

   EN    FR    IT 

 









Legend :    VFR   Marginal VFR   IFR   Intensive IFR   Very Intensive IFR
Visi :
Ceiling :
>= 8 km
>= 3000ft
5 to 8 km
1000 to 3000 ft
1500m to 5 km
500 to 1000 ft
800 to 1500m
200 to 500 ft
< 800m
< 200 ft
Symbols :   Thunderstorms  Fog  Heavy snow  Heavy precipitations  Wind > 20 kt






- Airport Elevation : 939 ft
- IATA code : UKK


UASK - Ust-Kamennogorsk

CURRENT METAR :
  • 271300Z 35010MPS 9999 FEW050 17/03 Q1018 R30/090060 NOSIG RMK QFE738/0984

EXPIRED METARs :
  • 271230Z 35010G15MPS 9999 FEW050 18/04 Q1018 R30/090060 NOSIG RMK QFE738/0984
  • 271200Z 34010MPS 9999 FEW050 18/04 Q1018 R30/090060 NOSIG RMK QFE738/0984
  • 271130Z 36011MPS 9999 FEW050 17/06 Q1018 R30/090060 NOSIG RMK QFE738/0984
  • 271100Z 34011G16MPS 9999 FEW050 19/07 Q1017 R30/090060 NOSIG RMK QFE738/0984

TAF TAF UASK
Valid from the 27 at 12:00 until the 27 at 21:00 UTC


271103Z 2712/2721 34013G18MPS 9999 FEW050
TEMPO 2712/2715 02010G15MPS
BECMG 2715/2717 35005G10MPS
UACC FIR / Asia



MET'MAP, your aeronautical weather chart ! - Copyright ORBIFLY December 2007 - Disclaimer

ORBIFLY MET'MAP TEAM :

Programming & Development : Alexandra Zaïnal
Concept & original design : Baudouin d'Aumeries
Assistance for programming : Marc-Olivier Méhu
Technical & hardware support : Manuel Goepfert

Contact : metmap@orbifly.com




SOURCES & CREDITS :

   NOAA       Earth
Advisory